Date,TemperatureHighF,TemperatureAvgF,TemperatureLowF,DewpointHighF,DewpointAvgF,DewpointLowF,HumidityHigh,HumidityAvg,HumidityLow,PressureMaxIn,PressureMinIn,WindSpeedMaxMPH,WindSpeedAvgMPH,GustSpeedMaxMPH,PrecipitationSumIn
2012-2-23,71.2,70.6,70.0,68.7,68.5,68.1,95,93,91,29.76,29.72,6,4,15,0.00
2012-2-25,69.3,64.0,60.1,37.5,35.5,32.0,39,35,27,30.11,30.02,17,6,17,0.24
2012-2-26,71.4,63.5,55.2,63.7,49.4,33.1,86,61,36,30.16,30.05,17,5,20,0.01
2012-2-27,87.3,74.2,66.0,69.2,66.2,12.5,94,77,49,30.13,30.03,99,2,99,0.00
2012-2-28,87.3,74.6,66.2,69.7,66.1,63.5,96,77,50,30.10,30.00,9,3,14,0.00
2012-2-29,87.1,72.9,66.6,69.4,66.2,62.0,95,81,45,30.07,29.93,8,2,16,0.00
2012-3-1,80.8,71.2,-13.7,70.1,66.4,-14.6,97,86,68,29.97,29.86,24,2,24,0.00
2012-3-2,84.6,75.1,67.8,71.0,68.6,64.7,97,81,55,29.94,29.83,11,3,18,0.00
2012-3-3,72.1,72.0,71.8,69.4,68.9,68.6,91,90,89,29.82,29.81,4,2,8,0.00
2012-3-4,75.4,61.6,51.4,71.9,42.2,31.0,93,52,28,30.15,29.59,14,4,27,0.21
2012-3-5,74.1,54.8,43.9,49.9,42.7,38.7,93,69,33,30.29,29.91,6,1,11,0.00
2012-3-6,80.4,60.8,51.3,56.8,50.8,48.8,95,74,38,29.97,29.86,10,1,19,0.56
2012-3-7,85.1,74.8,67.6,62.0,58.4,53.9,82,58,35,29.93,29.78,11,5,20,0.56
2012-3-8,90.0,73.8,64.0,66.4,62.9,57.7,94,72,35,29.83,29.65,10,3,16,0.00
2012-3-9,83.8,72.5,65.8,68.9,66.9,63.5,94,83,56,29.90,29.66,7,2,13,0.00
2012-3-10,83.8,70.5,63.1,66.3,63.5,-9.4,96,80,50,29.97,29.84,97,2,97,0.00
2012-3-11,86.0,73.6,65.7,67.8,65.0,61.9,91,76,49,30.22,29.90,11,4,22,0.00
2012-3-12,85.5,73.2,67.6,64.1,62.5,58.6,84,70,43,30.00,29.89,11,4,19,0.00
2012-3-13,84.6,72.5,63.3,65.3,61.9,58.5,91,71,43,30.30,29.94,14,4,14,0.00
2012-3-14,83.7,71.5,60.1,65.8,62.3,58.3,95,75,45,30.28,30.17,12,3,12,0.00
2012-3-15,85.8,73.0,60.8,67.3,63.6,59.0,95,74,45,30.28,30.16,15,4,15,0.14
2012-3-16,85.6,73.8,63.0,67.1,63.8,60.3,95,73,45,30.27,30.15,13,4,13,0.01
2012-3-17,87.4,73.5,61.3,65.5,62.4,55.2,95,71,35,30.27,30.06,13,4,13,0.08
2012-3-18,88.0,75.2,60.3,65.5,62.3,53.2,94,66,31,30.29,30.15,15,4,15,0.00
2012-3-19,88.5,74.1,63.0,66.0,61.9,55.8,93,69,35,30.22,30.08,15,4,15,0.00
2012-3-20,86.5,74.4,66.9,67.3,63.0,57.4,84,69,40,30.14,30.02,17,5,17,0.00
2012-3-21,90.9,76.3,68.0,69.3,65.9,59.7,95,72,40,30.19,30.04,17,5,17,0.19
2012-3-22,87.6,76.1,69.8,71.8,68.3,65.5,96,78,49,30.19,30.07,15,4,15,0.00
2012-3-23,85.1,76.6,69.8,69.1,67.7,64.0,93,75,52,30.15,30.04,13,4,14,0.00
2012-3-24,83.7,74.3,66.7,71.4,66.9,63.0,97,80,52,30.07,29.95,12,4,12,0.13
2012-3-25,81.9,75.4,71.1,70.3,62.0,49.3,93,65,35,29.97,29.88,14,6,14,0.09
2012-3-26,82.2,74.1,58.8,63.3,58.4,52.5,92,61,36,30.06,29.93,12,5,12,0.00
2012-3-27,87.1,76.2,58.3,63.3,58.4,53.4,94,56,36,30.21,30.05,17,5,17,0.00
2012-3-28,88.7,75.4,65.7,66.6,62.7,55.2,86,67,34,30.22,30.08,15,4,15,0.00
2012-3-29,83.7,73.7,63.5,67.8,64.4,61.9,95,74,50,30.12,30.01,14,3,14,0.00
2012-3-30,88.3,74.0,62.8,68.0,63.3,58.8,96,72,44,30.09,30.00,17,3,17,0.00
2012-3-31,84.0,74.0,65.8,70.3,66.6,59.7,93,78,58,30.02,29.91,16,4,16,0.06
2012-4-1,83.7,75.7,68.4,69.3,66.7,63.7,89,74,59,29.99,29.91,12,4,12,0.00
2012-4-2,84.2,74.8,64.8,70.3,67.1,63.3,96,78,57,29.98,29.87,13,3,13,0.00
2012-4-3,132.4,76.2,62.4,99.9,67.3,59.5,97,76,41,30.02,29.94,192,4,192,0.00
2012-4-4,86.7,78.6,63.1,71.6,68.2,61.3,96,72,44,30.01,29.86,21,4,192,0.21
2012-4-5,83.8,74.2,65.8,70.5,67.3,64.8,97,80,60,29.90,29.79,15,3,15,0.07
2012-4-6,82.4,76.2,68.7,72.1,63.8,54.3,82,66,42,30.00,29.77,17,7,17,0.00
2012-4-7,86.9,71.8,59.4,59.9,55.2,50.7,84,59,33,30.19,30.00,141,6,141,0.00
2012-4-8,81.3,71.9,62.8,59.7,55.1,50.7,76,57,36,30.23,30.10,14,6,14,0.00
2012-4-9,83.1,72.6,57.7,63.9,59.7,55.0,92,66,39,30.15,30.03,12,3,12,0.00
2012-4-10,85.1,73.1,60.4,64.8,60.7,53.1,93,68,34,30.12,30.01,13,4,13,0.00
2012-4-11,83.1,75.9,70.7,66.2,63.3,58.8,79,66,48,30.11,30.02,13,5,13,0.00
2012-4-12,82.6,74.8,67.1,65.5,52.2,38.1,77,49,21,30.12,30.02,14,5,14,0.00
2012-4-13,83.5,73.4,63.1,68.0,63.3,57.6,90,72,53,30.16,30.06,14,4,14,0.00
2012-4-14,84.9,74.8,66.4,66.6,63.1,59.9,91,68,49,30.25,30.13,20,8,20,0.00
2012-4-15,88.2,76.5,67.5,66.7,61.7,57.6,83,62,37,30.24,30.16,16,5,16,0.04
2012-4-16,87.8,76.2,63.1,64.0,59.9,54.9,90,59,35,30.23,30.14,13,4,15,0.00
2012-4-17,86.4,76.6,67.1,65.1,61.5,54.3,84,62,35,30.20,30.06,17,4,17,0.00
2012-4-18,85.5,76.4,67.8,69.3,65.0,61.0,86,69,48,30.12,29.98,15,3,17,0.00
2012-4-19,85.5,75.7,70.3,73.2,69.6,68.0,94,82,58,30.01,29.89,12,2,13,0.18
2012-4-20,87.6,76.2,67.5,73.9,69.3,66.4,98,81,55,29.96,29.84,12,3,14,0.00
2012-4-21,81.7,71.7,63.0,69.4,66.7,61.0,95,85,60,29.90,29.63,18,3,52,0.31
2012-4-22,79.2,69.6,61.0,68.7,61.7,48.0,99,78,42,29.81,29.57,22,6,22,0.47
2012-4-23,74.1,70.3,65.1,51.1,47.7,43.3,54,45,37,29.95,29.81,21,10,21,0.00
2012-4-24,73.2,65.4,53.8,46.6,41.3,30.9,64,42,28,30.10,29.94,16,5,47,0.00
2012-4-25,80.1,67.2,50.2,59.0,51.7,44.8,92,61,38,30.18,29.87,11,3,11,0.00
2012-4-26,82.6,70.5,55.9,64.4,60.4,54.1,95,72,52,30.21,30.09,13,3,13,0.00
2012-4-27,84.2,72.8,59.7,67.3,62.3,58.1,96,72,47,30.17,30.07,14,3,14,0.00
2012-4-28,87.3,75.5,62.4,72.1,67.5,61.0,96,78,56,30.13,30.04,16,3,16,0.06
2012-4-29,91.0,78.7,67.3,72.5,68.3,59.2,98,73,37,30.13,30.03,14,3,14,0.38
2012-4-30,91.8,82.1,69.8,69.3,66.6,63.3,91,61,42,30.14,30.02,21,9,21,0.00
2012-5-1,92.5,80.3,71.2,70.3,68.1,65.3,91,68,43,30.12,29.98,17,7,17,0.00
2012-5-2,93.0,80.1,73.0,73.9,69.5,65.3,92,72,42,30.12,30.01,21,6,21,0.02
2012-5-3,90.9,79.3,72.0,72.0,69.5,65.5,92,74,45,30.12,30.05,15,5,15,0.00
2012-5-4,89.1,80.1,73.0,71.8,69.9,65.7,88,73,49,30.12,30.02,12,4,12,0.00
2012-5-5,87.6,78.9,69.1,73.4,70.6,66.2,93,77,59,30.06,29.96,15,4,15,0.00
2012-5-6,88.5,79.3,69.4,73.9,69.9,67.6,96,75,53,30.01,29.94,14,3,14,0.00
2012-5-7,87.1,78.0,68.7,72.3,69.3,66.4,96,76,57,29.97,29.88,13,3,13,0.00
2012-5-8,88.3,78.4,67.6,72.1,69.3,66.2,96,75,55,29.95,29.87,15,3,15,0.00
2012-5-9,87.4,79.8,71.2,74.7,71.8,69.1,94,77,61,29.93,29.81,17,4,17,0.00
2012-5-10,85.8,79.1,72.3,71.6,64.9,53.1,84,63,35,29.97,29.82,14,5,14,0.00
2012-5-11,93.6,78.2,62.4,70.0,63.0,53.8,93,63,30,30.15,29.95,17,5,17,0.00
2012-5-12,94.3,80.9,73.0,72.0,65.2,59.2,78,60,37,30.19,30.08,18,8,18,2.74
2012-5-13,88.2,78.1,72.5,71.6,66.8,-14.6,86,69,49,30.16,30.04,14,4,14,0.00
2012-5-14,88.7,79.5,72.9,73.9,71.8,68.2,94,79,54,30.09,29.97,11,2,11,0.00
2012-5-15,89.4,80.4,70.3,73.9,71.1,67.8,96,75,51,30.05,29.96,13,3,13,0.00
2012-5-16,80.6,74.4,69.4,75.7,70.8,66.7,98,89,71,30.04,29.94,10,2,10,0.74
2012-5-17,87.3,78.3,69.4,75.7,69.6,67.3,99,76,56,29.96,29.88,11,3,11,0.02
2012-5-18,87.3,78.8,67.6,74.5,69.4,66.4,98,74,55,29.97,29.89,14,4,14,0.00
2012-5-19,88.3,79.1,69.6,71.6,68.7,65.7,92,72,49,30.04,29.91,15,5,15,0.00
2012-5-20,87.6,78.3,68.9,68.2,63.9,53.2,89,64,33,30.04,29.95,17,5,17,0.00
2012-5-21,88.3,79.1,63.9,71.4,62.7,54.5,95,60,34,30.04,29.94,13,4,13,0.00
2012-5-22,88.7,79.7,66.2,72.3,68.6,64.0,96,70,49,30.00,29.90,14,4,14,0.00
2012-5-23,91.2,80.5,67.5,76.8,69.2,63.5,98,71,41,29.95,29.84,14,3,14,0.00
2012-5-24,91.9,81.1,73.0,76.5,72.3,67.8,95,76,50,29.95,29.83,17,4,17,0.08
2012-5-25,93.2,82.8,72.5,76.6,73.0,65.7,96,74,49,30.06,29.93,13,4,13,0.00
2012-5-26,91.2,83.0,71.4,73.9,71.0,65.3,94,69,46,30.09,29.96,14,4,14,0.00
2012-5-27,89.6,81.5,69.3,78.3,73.3,65.8,96,77,57,30.01,29.86,17,4,17,0.38
2012-5-28,89.8,83.4,79.7,78.8,75.9,71.1,87,78,69,29.93,29.83,17,6,17,0.00
2012-5-29,81.9,80.0,76.8,76.8,74.5,71.8,93,84,79,29.96,29.88,17,4,17,0.32
2012-5-30,90.0,83.4,79.5,78.6,76.4,74.3,87,80,68,29.94,29.85,17,6,17,0.01
2012-5-31,90.0,83.4,78.6,77.4,74.8,71.2,87,76,63,29.96,29.88,13,4,13,0.00
2012-6-1,86.0,78.2,72.1,74.1,72.6,70.5,99,83,63,29.99,29.85,12,2,12,1.56
2012-6-2,89.8,82.2,73.0,75.9,73.0,70.0,98,75,59,30.02,29.90,15,4,15,0.00
2012-6-3,90.7,82.1,71.6,74.7,70.5,64.0,93,69,44,30.08,29.97,11,3,11,0.00
2012-6-4,88.7,81.5,70.9,77.4,73.9,68.9,96,78,66,30.03,29.88,14,4,14,0.00
2012-6-5,86.4,81.0,75.2,78.1,73.8,70.7,89,79,71,29.91,29.82,19,4,19,0.07
2012-6-6,86.7,78.6,74.5,78.8,73.0,67.8,93,83,60,29.95,29.86,27,2,27,0.14
2012-6-7,83.5,76.9,73.6,78.8,75.0,72.3,99,94,82,29.98,29.91,16,2,16,0.56
2012-6-8,86.7,76.2,71.2,79.3,74.0,70.7,99,93,69,30.01,29.90,17,2,17,0.48
2012-6-9,91.8,80.9,71.1,78.3,74.4,70.5,99,82,61,30.05,29.91,13,3,13,0.02
2012-6-10,95.7,84.6,75.2,79.3,76.1,71.8,99,77,53,30.17,30.00,12,3,12,0.01
2012-6-11,93.9,84.6,73.4,77.9,73.9,68.9,94,72,47,30.16,30.07,12,4,12,0.00
2012-6-12,93.2,84.1,73.8,77.7,74.3,70.7,91,73,54,30.12,29.97,13,3,13,0.00
2012-6-13,90.5,84.5,77.4,77.5,75.5,72.5,91,75,58,30.02,29.91,12,4,13,0.00
2012-6-14,91.9,83.8,75.6,77.5,74.0,67.3,92,73,54,30.04,29.93,15,5,15,0.01
2012-6-15,90.0,80.3,72.5,75.6,71.4,67.5,94,75,55,30.08,29.97,18,4,18,0.00
2012-6-16,93.7,82.8,72.9,73.2,68.5,61.7,92,65,36,30.09,29.99,16,6,16,0.00
2012-6-17,92.8,82.2,70.5,71.2,66.8,62.4,93,62,40,30.10,29.94,15,6,15,0.00
2012-6-18,94.5,83.0,71.1,71.6,66.7,57.4,85,60,31,30.08,29.97,17,6,17,0.00
2012-6-19,91.4,81.3,71.2,70.7,67.0,63.0,87,63,42,30.09,29.98,17,7,17,0.00
2012-6-20,90.7,79.4,73.9,76.6,71.7,66.9,94,78,57,30.07,29.96,18,7,18,0.05
2012-6-21,92.7,81.0,76.3,76.3,74.6,72.1,95,82,54,30.01,29.87,15,5,15,0.05
2012-6-22,91.8,81.4,75.2,77.0,75.2,73.0,97,82,58,29.94,29.86,15,4,15,0.02
2012-6-23,81.3,77.7,75.0,77.9,75.3,73.2,98,93,80,29.96,29.87,15,4,15,0.17
2012-6-24,79.0,76.9,74.8,78.4,76.5,74.3,99,99,96,29.94,29.67,30,8,30,8.42
2012-6-25,88.3,81.2,75.9,78.3,76.5,74.7,99,86,72,29.71,29.61,24,8,24,0.65
2012-6-26,86.7,81.5,77.5,79.2,76.4,74.8,95,85,72,29.65,29.56,23,9,23,0.33
2012-6-27,86.9,80.4,75.0,75.0,73.2,71.4,97,80,66,30.04,29.68,15,6,15,0.05
2012-6-28,91.2,82.3,72.5,73.9,67.9,63.0,87,63,45,30.11,30.02,12,4,12,0.00
2012-6-29,89.8,81.1,70.2,76.6,71.3,67.8,98,74,57,30.09,29.97,12,3,12,0.00
2012-6-30,89.4,83.0,75.9,74.8,72.4,70.9,86,71,58,30.04,29.95,12,4,12,0.00
2012-7-1,91.8,84.7,77.9,78.1,75.8,73.6,91,75,58,30.12,30.00,11,4,11,0.00
2012-7-2,91.4,83.8,76.1,79.5,76.0,72.7,97,78,61,30.13,30.03,13,3,13,0.00
2012-7-3,92.3,84.2,75.2,79.5,74.9,72.1,98,75,55,30.11,29.99,39,3,39,0.00
2012-7-4,95.0,84.3,74.5,78.6,74.2,68.9,98,74,45,30.12,30.03,12,2,12,0.00
2012-7-5,94.5,82.9,73.9,80.4,74.3,71.8,98,77,55,30.11,29.98,11,2,11,0.19
2012-7-6,93.0,83.1,74.8,77.9,75.2,73.6,98,79,57,30.07,29.99,12,2,12,0.00
2012-7-7,95.0,85.2,75.6,78.4,75.3,61.9,97,74,53,30.12,30.04,14,3,14,0.04
2012-7-8,97.0,85.6,75.6,79.0,75.1,72.1,95,73,51,30.12,30.02,12,3,12,0.01
2012-7-9,92.1,82.9,32.0,81.5,74.9,-20.6,99,78,9,30.09,29.98,16,-1,16,0.54
2012-7-10,93.7,81.0,74.7,79.0,74.6,71.8,97,82,55,30.08,29.99,12,2,12,0.07
2012-7-11,93.4,78.8,72.5,77.4,74.5,71.2,99,88,53,30.07,29.97,13,2,13,0.98
2012-7-12,92.7,80.3,73.9,79.2,75.0,70.5,99,86,49,30.06,29.96,11,2,11,0.15
2012-7-13,94.3,82.0,75.9,77.4,75.6,73.9,99,83,56,30.09,29.99,15,3,15,0.02
2012-7-14,91.9,81.5,76.3,77.7,75.0,73.0,99,82,56,30.12,30.02,16,3,16,0.07
2012-7-15,91.8,81.2,74.8,77.5,75.3,71.4,99,84,55,30.14,30.04,12,3,12,0.11
2012-7-16,90.9,82.0,73.9,78.8,75.4,72.9,99,82,62,30.11,29.97,12,3,12,0.38
2012-7-17,89.4,79.7,72.5,78.4,74.9,72.1,99,86,64,30.06,29.96,12,3,12,0.40
2012-7-18,86.0,77.0,72.7,79.3,74.9,71.6,99,94,77,30.16,30.00,19,1,19,1.15
2012-7-19,94.3,83.2,74.5,81.9,77.1,74.1,99,83,62,30.19,30.11,11,2,11,0.01
2012-7-20,94.1,84.6,74.7,81.3,76.8,73.8,99,79,56,30.15,30.06,12,3,12,0.00
2012-7-21,94.6,83.9,70.7,79.2,76.0,69.8,99,79,52,30.16,30.04,24,3,24,0.44
2012-7-22,97.2,78.8,72.1,79.3,75.2,70.2,99,91,50,30.18,30.04,27,2,27,0.61
2012-7-23,90.1,80.6,75.0,77.7,74.9,73.0,97,83,61,30.17,30.11,16,4,16,0.01
2012-7-24,91.9,82.8,76.1,80.1,75.4,71.2,97,80,57,30.16,30.05,17,3,17,0.01
2012-7-25,91.0,84.9,79.7,79.3,76.6,74.7,92,77,64,30.07,30.00,15,4,15,0.25
2012-7-26,91.0,84.1,76.3,80.4,76.4,74.8,99,79,61,30.07,30.00,15,3,15,0.00
2012-7-27,92.3,84.3,76.1,81.1,76.4,73.4,99,79,60,30.12,30.01,13,3,13,0.00
2012-7-28,93.0,84.3,75.0,83.5,75.4,73.0,99,76,56,30.12,30.03,11,2,11,0.00
2012-7-29,93.4,84.4,74.5,82.4,75.4,73.8,99,76,57,30.09,30.00,15,3,15,0.00
2012-7-30,92.3,82.6,77.4,79.2,74.7,71.6,89,78,58,30.08,30.00,15,2,15,0.00
2012-7-31,93.6,82.4,74.8,83.1,75.8,72.9,99,82,58,30.07,29.99,16,3,16,0.22
2012-8-1,93.7,84.2,75.9,80.6,76.1,73.2,99,78,53,30.04,29.95,13,3,13,0.00
2012-8-2,93.4,84.7,75.9,79.9,75.2,71.2,94,74,53,30.02,29.94,13,3,13,0.00
2012-8-3,93.6,83.4,74.5,83.5,73.9,70.5,99,74,49,30.06,29.96,13,3,13,0.00
2012-8-4,93.4,84.4,75.2,76.1,73.0,70.3,93,71,49,30.07,29.99,13,3,13,0.00
2012-8-5,94.5,82.5,77.0,78.6,75.0,71.2,93,79,51,30.15,30.01,16,2,16,0.74
2012-8-6,93.9,82.5,76.8,79.2,75.8,72.7,95,81,54,30.12,29.99,14,3,14,0.04
2012-8-7,95.4,83.4,75.4,78.1,75.9,73.8,98,80,54,30.06,29.98,10,2,10,0.01
2012-8-8,95.5,86.3,77.0,80.1,76.7,74.3,97,75,54,30.07,29.99,13,3,13,0.00
2012-8-9,95.0,87.2,75.6,77.7,75.5,73.2,95,70,54,30.05,29.94,11,3,11,0.00
2012-8-10,99.3,83.6,-15.3,84.6,74.1,-15.3,94,73,54,30.02,29.93,11,2,11,0.00
2012-8-11,93.2,84.0,75.2,77.9,74.6,68.4,95,75,54,30.04,29.93,13,2,13,0.00
2012-8-12,93.7,83.3,76.3,79.5,75.3,73.0,95,78,54,30.06,29.98,12,2,12,0.06
2012-8-13,94.8,85.1,76.5,81.1,75.6,72.3,99,76,51,30.09,30.01,11,2,11,0.01
2012-8-14,94.6,84.5,-16.1,82.9,74.6,-21.3,98,74,52,30.08,29.99,11,-2,11,0.00
2012-8-15,91.2,82.6,78.1,75.0,73.9,72.3,84,75,57,30.07,30.00,6,1,6,0.00
2012-8-16,95.9,86.9,77.0,83.8,74.9,71.6,96,70,47,30.10,29.99,11,2,11,0.00
2012-8-17,92.3,83.2,77.2,81.9,74.8,70.3,97,77,61,30.06,29.95,16,2,16,0.01
2012-8-18,91.0,79.1,73.2,80.4,74.7,70.5,97,87,62,30.06,29.90,12,1,12,0.67
2012-8-19,92.8,83.6,76.5,84.0,76.4,73.2,99,81,58,30.02,29.93,21,3,21,0.24
2012-8-20,93.9,83.8,75.9,80.1,76.1,73.0,99,80,54,30.04,29.91,18,4,18,0.64
2012-8-21,92.8,78.6,42.1,77.5,74.7,32.4,99,89,57,30.12,29.96,27,3,27,1.31
2012-8-22,89.1,77.1,73.0,79.5,74.5,69.4,99,92,64,30.11,27.06,19,2,19,0.24
2012-8-23,92.8,81.2,73.8,79.3,72.7,66.9,99,78,47,30.13,30.03,11,2,11,0.01
2012-8-24,93.9,83.0,73.2,74.7,71.9,68.2,97,71,50,30.09,29.96,15,4,15,0.00
2012-8-25,91.8,80.9,74.3,74.3,72.1,68.5,94,76,53,30.06,29.95,15,5,15,0.00
2012-8-26,85.5,79.2,75.7,76.1,74.3,70.7,95,86,70,30.03,29.83,23,8,23,0.21
2012-8-27,86.4,79.3,76.1,79.9,77.0,74.8,99,93,77,30.01,29.71,22,9,22,0.69
2012-8-28,90.9,84.3,79.3,79.0,77.0,75.7,95,79,63,29.98,29.85,18,5,18,0.01
2012-8-29,90.9,83.6,78.1,78.4,75.8,32.0,93,78,59,30.00,29.91,57,4,57,0.00
2012-8-30,93.2,84.2,75.9,78.6,75.3,72.0,97,76,53,30.15,29.93,10,2,10,0.00
2012-8-31,93.0,84.3,76.5,80.4,75.8,72.0,99,77,55,30.19,30.09,10,3,10,0.00
2012-9-1,92.8,84.7,76.1,78.8,74.9,69.8,97,74,52,30.18,30.06,13,4,13,0.00
2012-9-2,92.5,83.0,74.5,75.6,71.6,56.5,95,71,33,30.12,30.00,13,3,13,0.00
2012-9-3,92.5,83.3,71.4,76.3,72.3,69.1,97,72,49,30.08,29.99,11,3,11,0.00
2012-9-4,93.6,82.9,73.9,80.2,72.8,67.6,99,74,44,30.05,29.96,15,2,15,0.00
2012-9-5,92.5,82.5,72.7,79.0,72.9,68.2,99,75,50,30.06,29.94,15,2,15,0.00
2012-9-6,91.8,81.1,74.8,78.8,74.0,70.2,98,80,56,30.04,29.96,14,3,14,0.41
2012-9-7,91.4,81.7,74.7,78.4,74.6,71.2,99,81,55,30.02,29.92,11,2,11,0.00
2012-9-8,91.2,82.4,74.3,81.0,74.9,73.0,99,80,57,29.97,29.88,17,4,17,0.00
2012-9-9,86.0,80.8,73.0,81.0,76.3,72.7,99,87,74,29.99,29.87,18,4,18,1.68
2012-9-10,91.8,82.2,74.7,81.9,74.8,69.3,99,81,53,30.07,29.74,17,2,17,0.47
2012-9-11,91.2,81.7,75.0,75.0,72.1,66.2,93,74,52,30.17,29.63,18,5,18,0.01
2012-9-12,91.4,81.1,73.8,72.5,68.4,65.3,83,66,48,30.15,30.07,17,6,17,0.12
2012-9-13,92.5,81.0,74.1,76.6,71.3,67.3,90,74,45,30.13,30.03,21,5,21,0.14
2012-9-14,91.8,82.2,73.9,73.9,71.7,68.7,89,72,51,30.10,29.99,15,5,15,0.00
2012-9-15,90.9,80.9,75.9,75.0,72.9,68.9,95,78,50,30.09,30.00,15,4,15,0.05
2012-9-16,87.6,79.4,74.5,76.1,73.1,70.2,92,82,60,30.09,29.98,16,3,16,0.05
2012-9-17,92.8,82.2,73.8,76.3,73.6,70.0,98,77,51,30.07,29.91,16,3,16,0.00
2012-9-18,84.7,79.0,76.8,79.7,76.1,72.3,99,91,79,30.08,29.88,17,2,17,0.20
2012-9-19,91.9,81.8,77.4,78.8,74.5,70.5,99,79,59,30.06,29.92,10,3,10,0.01
2012-9-20,91.2,81.2,75.9,80.2,74.8,69.1,99,83,55,30.07,29.95,10,2,10,0.01
2012-9-21,91.9,80.4,73.9,76.8,72.9,67.5,97,80,51,30.06,29.93,21,3,21,0.04
2012-9-22,91.0,79.8,72.5,75.0,72.0,68.0,99,79,52,30.06,29.96,11,3,11,0.00
2012-9-23,91.4,81.2,70.9,80.1,70.8,55.0,99,74,44,30.11,30.02,14,3,14,0.00
2012-9-24,130.1,78.1,72.5,63.1,54.9,47.5,72,46,28,30.14,30.04,11,3,11,0.00
2012-9-25,89.4,76.6,65.3,71.1,64.9,57.7,90,69,39,30.12,30.04,11,2,11,0.00
2012-9-26,91.4,79.8,71.4,74.7,70.0,62.6,99,75,42,30.14,30.00,10,3,10,0.00
2012-9-27,91.8,81.3,72.0,76.5,72.5,68.9,99,77,50,30.14,30.00,12,3,12,0.00
2012-9-28,90.9,80.8,73.4,78.1,73.2,70.7,99,80,54,30.09,29.96,13,3,13,0.07
2012-9-29,92.8,80.9,73.6,78.4,74.5,67.1,99,83,45,30.04,29.88,11,3,11,0.01
2012-9-30,92.8,81.5,73.9,80.4,74.3,66.0,99,81,43,30.04,29.80,13,2,13,0.00
2012-10-1,91.6,81.4,74.8,80.1,75.2,71.1,99,84,55,29.83,29.73,14,3,14,0.11
2012-10-2,89.8,81.6,75.2,79.3,74.9,71.1,99,81,61,30.07,29.80,16,3,16,0.08
2012-10-3,84.7,76.6,73.2,80.6,75.5,72.9,99,97,81,30.17,30.01,14,2,14,1.05
2012-10-4,91.6,80.0,72.9,79.3,75.4,69.3,99,87,57,30.19,30.07,22,4,22,0.01
2012-10-5,90.0,79.5,73.6,77.7,74.7,71.2,99,86,61,30.15,29.97,17,4,17,0.01
2012-10-6,93.0,81.2,73.9,80.8,75.0,70.7,99,83,58,30.02,29.88,16,3,16,0.01
2012-10-7,90.9,79.4,71.6,77.2,72.5,66.0,99,81,52,30.01,29.91,11,2,11,0.00
2012-10-8,87.3,77.5,71.6,78.1,74.1,71.2,99,90,67,30.05,29.95,10,1,10,0.01
2012-10-9,89.4,78.3,71.1,78.8,73.8,69.4,99,88,56,30.13,29.99,12,2,12,0.00
2012-10-10,86.9,84.8,81.0,75.2,74.4,70.9,78,71,67,29.92,29.73,5,4,8,2.95
2012-10-11,89.1,78.9,66.6,69.1,65.5,59.2,99,66,39,30.19,30.11,15,4,15,0.00
2012-10-12,88.9,76.4,67.3,67.1,63.7,58.1,91,67,37,30.22,30.11,16,4,16,0.00
2012-10-13,88.2,77.5,69.4,66.2,62.8,58.5,84,63,39,30.20,30.08,18,5,18,0.00
2012-10-14,93.0,79.2,68.7,71.6,67.6,63.1,92,69,39,30.15,30.00,14,4,14,0.00
2012-10-15,88.5,78.7,72.0,75.2,72.4,69.4,99,82,61,30.02,29.84,13,3,13,0.00
2012-10-16,88.2,76.2,66.2,73.0,65.0,56.3,99,72,41,29.91,29.81,14,3,14,0.00
2012-10-17,86.0,72.7,65.5,68.7,65.9,60.4,99,81,47,29.93,29.82,8,1,8,0.00
2012-10-18,88.5,75.4,66.4,75.7,69.7,65.8,99,85,52,29.91,29.82,12,2,12,0.02
2012-10-19,88.0,76.4,66.2,77.4,71.0,65.8,99,85,60,29.91,29.83,14,2,14,0.00
2012-10-20,84.6,76.1,61.5,74.3,59.1,47.3,90,58,32,30.01,29.87,14,4,14,0.00
2012-10-21,86.4,71.2,58.1,58.3,49.4,39.7,94,51,21,30.09,29.99,17,3,17,0.00
2012-10-22,87.3,75.3,65.3,62.1,58.6,53.8,77,58,33,30.12,29.99,17,6,17,0.00
2012-10-23,86.7,75.9,66.2,63.1,61.0,56.8,82,62,40,30.10,29.97,15,5,15,0.00
2012-10-24,88.7,77.1,68.4,70.0,64.8,59.5,93,68,39,30.06,29.91,17,6,17,0.01
2012-10-25,86.2,77.2,71.2,70.9,67.4,63.3,86,73,49,29.97,29.81,18,6,18,0.00
2012-10-26,84.4,77.6,72.7,70.7,67.2,61.5,87,71,57,29.85,29.67,23,9,23,0.00
2012-10-27,79.3,75.4,72.3,66.6,62.5,59.4,74,64,55,29.75,29.64,25,12,25,0.00
2012-10-28,78.6,71.3,65.3,66.7,57.5,49.3,76,62,41,29.86,29.73,23,9,23,0.00
2012-10-29,69.4,64.8,60.4,50.7,44.7,36.7,64,49,31,29.93,29.81,23,11,23,0.00
2012-10-30,69.4,64.3,59.7,47.5,40.8,34.7,52,43,30,30.00,29.88,23,10,23,0.00
2012-10-31,74.5,66.0,57.6,54.9,48.1,43.9,89,54,36,30.10,29.99,17,4,17,0.00
2012-11-1,79.3,68.4,58.1,66.2,59.9,54.9,94,75,50,30.08,29.98,11,2,11,0.00
2012-11-2,79.2,64.3,53.4,65.5,53.4,37.2,99,75,25,30.14,30.05,11,2,11,0.00
2012-11-3,81.9,67.1,55.4,71.2,62.7,55.0,99,88,58,30.17,30.08,11,2,11,0.00
2012-11-4,82.6,68.4,61.2,73.9,65.0,60.3,99,91,50,30.15,30.02,10,2,10,0.01
2012-11-5,78.6,68.5,61.0,70.5,62.2,49.8,99,83,39,30.04,29.95,13,2,13,0.00
2012-11-6,68.5,61.8,59.4,68.2,61.4,59.0,99,99,99,29.97,29.91,4,0,4,0.06
2012-11-7,67.8,64.2,59.5,53.8,46.4,39.0,76,53,39,30.04,29.93,16,8,16,0.00
2012-11-8,66.6,58.7,50.7,45.5,39.6,35.1,73,50,33,30.20,30.02,34,4,34,0.76
2012-11-9,75.6,62.6,44.6,48.7,39.7,19.0,95,49,14,30.31,30.19,11,3,11,0.00
2012-11-10,78.1,65.3,51.8,52.5,46.1,35.1,83,53,27,30.35,30.19,13,3,13,0.00
2012-11-11,81.3,68.4,54.9,61.0,56.2,52.0,95,68,38,30.32,30.21,15,3,15,0.00
2012-11-12,83.7,71.5,62.2,65.8,62.7,55.0,99,76,39,30.27,30.16,13,3,13,0.00
2012-11-13,82.8,71.2,65.5,70.0,66.2,63.7,99,86,56,30.22,30.12,11,2,11,0.00
2012-11-14,76.6,68.9,64.4,68.0,65.4,63.3,99,89,66,30.22,30.11,11,3,11,0.00
2012-11-15,72.3,66.5,61.0,66.2,63.1,59.2,99,90,71,30.19,30.10,13,4,13,0.00
2012-11-16,64.8,59.7,57.7,59.5,58.5,57.4,99,96,78,30.22,30.15,10,4,10,0.00
2012-11-17,77.7,67.7,59.4,63.3,60.3,25.0,94,78,54,30.27,30.09,19,2,19,0.00
2012-11-18,74.5,65.0,59.0,59.5,57.0,51.6,92,77,48,30.22,30.13,15,5,15,0.00
2012-11-19,68.4,62.9,54.7,57.7,54.9,51.6,90,75,63,30.22,30.10,14,5,14,0.17
2012-11-20,70.0,63.7,59.0,60.3,56.1,52.3,93,77,62,30.22,30.02,17,6,17,0.00
2012-11-21,72.0,63.2,54.0,58.6,54.3,48.7,99,76,47,30.14,30.04,17,4,17,0.00
2012-11-22,74.5,63.1,48.4,50.0,38.7,13.5,95,46,10,30.23,30.12,17,5,17,0.00
2012-11-23,72.5,55.7,41.4,49.6,37.3,21.4,94,58,16,30.27,30.05,13,2,13,0.00
2012-11-24,70.7,56.5,48.6,65.5,49.8,46.0,99,80,53,30.16,30.06,15,3,15,0.02
2012-11-25,70.9,53.7,39.4,69.3,36.0,9.9,94,57,10,30.23,30.13,13,2,13,0.00
2012-11-26,77.7,58.4,42.1,56.3,47.9,41.0,99,72,37,30.27,30.16,11,2,11,0.00
2012-11-27,80.6,65.7,54.1,65.8,59.3,49.1,99,82,45,30.27,30.12,11,2,11,0.00
2012-11-28,71.8,64.6,58.3,65.3,60.1,54.7,99,86,68,30.30,30.14,17,5,17,0.00
2012-11-29,78.4,65.7,54.0,57.7,54.1,51.4,92,69,41,30.32,30.21,14,6,14,0.00
2012-11-30,78.6,67.0,58.1,64.2,55.5,50.7,89,68,39,30.30,30.13,13,4,13,0.00
2012-12-1,80.1,67.7,54.3,61.3,57.2,52.5,96,71,42,30.29,30.16,11,3,11,0.00
2012-12-2,81.5,69.3,61.9,64.2,61.0,52.9,95,77,41,30.31,30.20,13,3,13,0.00
2012-12-3,81.3,70.2,63.7,65.1,62.8,59.0,95,79,48,30.31,30.19,11,3,11,0.00
2012-12-4,79.3,68.2,58.3,64.8,56.6,41.5,99,72,27,30.32,29.89,14,3,14,0.00
2012-12-5,83.3,68.4,58.5,63.9,59.6,48.7,94,75,32,30.23,30.05,12,3,12,0.00
2012-12-6,80.2,70.6,64.6,67.6,62.6,58.3,95,78,49,30.09,29.94,11,3,11,0.02
2012-12-7,84.9,67.0,62.4,66.4,63.5,60.6,99,89,46,30.09,29.94,11,3,11,0.00
2012-12-8,83.7,70.4,63.3,68.7,66.3,62.8,99,88,54,30.07,29.98,12,3,12,0.00
2012-12-9,79.9,67.8,62.4,70.2,65.8,62.1,99,94,69,30.12,29.87,8,2,8,0.00
2012-12-10,78.4,68.6,60.8,74.3,67.1,60.4,99,96,79,30.06,29.78,15,2,15,0.09
2012-12-11,82.8,73.1,67.3,74.7,70.8,62.2,99,93,65,30.05,29.68,16,2,16,0.01
2012-12-12,83.3,72.7,68.2,72.5,70.0,51.8,99,92,52,30.12,29.76,12,2,12,0.01
2012-12-13,70.3,64.2,55.8,67.1,59.1,51.6,97,84,68,30.24,30.09,16,7,16,0.01
2012-12-14,68.9,59.1,53.8,57.2,54.5,50.7,96,86,63,30.27,30.13,12,5,12,0.00
2012-12-15,89.2,63.4,54.5,65.7,60.1,54.0,99,90,60,30.19,29.81,11,3,55,0.00
2012-12-16,81.9,67.8,59.4,68.2,62.2,59.0,99,85,50,30.09,29.96,11,1,11,0.01
2012-12-17,81.1,69.8,60.6,70.9,66.3,57.4,99,90,60,30.06,29.90,14,3,14,0.00
2012-12-18,79.9,68.3,51.6,72.0,64.1,51.1,99,87,65,30.06,29.90,16,4,16,0.01
2012-12-19,76.5,59.0,46.9,55.0,47.6,17.4,99,75,14,30.15,30.05,11,2,11,0.01
2012-12-20,82.2,67.2,50.9,71.6,62.5,50.5,99,87,60,30.11,29.96,20,4,20,0.27
2012-12-21,67.8,58.7,55.2,66.4,41.7,31.6,95,54,39,30.26,30.01,26,12,26,0.01
2012-12-22,59.2,51.9,38.8,40.6,35.7,27.0,97,57,34,30.36,30.24,21,7,21,0.00
2012-12-23,67.3,49.8,36.1,46.8,37.2,21.9,99,69,21,30.31,30.18,11,2,11,0.00
2012-12-24,79.3,58.4,47.1,75.7,54.2,45.7,99,87,64,30.18,29.96,12,2,12,0.01
2012-12-25,75.4,64.5,54.1,63.3,58.0,53.8,99,81,58,30.05,29.89,10,2,10,0.00
2012-12-26,88.9,66.1,56.1,71.2,60.5,45.5,99,82,65,30.04,29.83,20,7,20,0.41
2012-12-27,89.4,52.4,42.8,48.9,46.0,42.1,98,79,65,30.16,29.94,15,5,70,0.00
2012-12-28,73.8,54.0,41.9,72.0,46.8,-26.0,99,80,48,30.15,22.69,53,3,53,0.17
2012-12-30,56.8,50.9,46.4,42.4,38.4,31.6,84,63,41,30.40,30.33,12,4,12,0.00
2012-12-31,73.0,56.1,42.4,56.1,49.0,39.9,97,79,51,30.40,30.22,10,2,10,0.00
2013-1-1,79.2,64.5,51.8,61.3,56.4,51.4,99,78,46,30.25,30.06,15,2,15,0.00